Time;durP1;ratioP1;P1;durP2;ratioP2;P2;SDS_P1;SDS_P2;PMS_P1;PMS_P2;Temp;Humidity;BMP_temperature;BMP_pressure;BME280_temperature;BME280_humidity;BME280_pressure;Samples;Min_cycle;Max_cycle;Signal;HPM_P1;HPM_P2
2023/03/01 00:00:41;;;;;;;7.75;5.00;;;;;;;;;;5088369;28;20040;-76
2023/03/01 00:03:07;;;;;;;5.90;4.25;;;;;;;;;;5088401;28;20023;-76
2023/03/01 00:05:33;;;;;;;15.35;5.43;;;;;;;;;;5088408;28;20046;-76
2023/03/01 00:07:59;;;;;;;11.82;5.38;;;;;;;;;;5088070;28;20757;-75
2023/03/01 00:10:26;;;;;;;9.75;4.55;;;;;;;;;;5088264;28;20056;-76
2023/03/01 00:12:52;;;;;;;7.20;5.10;;;;;;;;;;5087601;28;20024;-76
2023/03/01 00:15:18;;;;;;;11.68;4.82;;;;;;;;;;5088263;28;20414;-76
2023/03/01 00:17:44;;;;;;;7.25;4.40;;;;;;;;;;5087834;28;20024;-75
2023/03/01 00:20:10;;;;;;;8.95;6.13;;;1.70;76.20;;;;;;5088141;28;20032;-75
2023/03/01 00:22:37;;;;;;;15.10;5.53;;;1.60;75.10;;;;;;5086036;28;20020;-76
2023/03/01 00:25:03;;;;;;;10.23;4.85;;;1.60;72.20;;;;;;5088198;28;20375;-76
2023/03/01 00:27:29;;;;;;;7.57;4.55;;;;;;;;;;5087587;28;20047;-75
2023/03/01 00:29:55;;;;;;;9.70;5.25;;;;;;;;;;5088219;28;20510;-75
2023/03/01 00:32:21;;;;;;;11.93;5.30;;;1.50;82.00;;;;;;5087632;28;20031;-75
2023/03/01 00:34:53;;;;;;;11.65;3.90;;;;;;;;;;5087906;28;20024;-75
2023/03/01 00:37:23;;;;;;;10.25;5.07;;;1.50;73.30;;;;;;5088207;28;20386;-75
2023/03/01 00:39:49;;;;;;;8.43;5.40;;;;;;;;;;5088061;28;20024;-75
2023/03/01 00:42:15;;;;;;;7.93;4.10;;;1.20;72.30;;;;;;5087589;28;20414;-75
2023/03/01 00:44:41;;;;;;;8.82;5.22;;;;;;;;;;5088209;28;20021;-76
2023/03/01 00:47:07;;;;;;;9.32;6.32;;;1.00;92.20;;;;;;5087929;28;20035;-76
2023/03/01 00:49:33;;;;;;;9.38;4.55;;;;;;;;;;5090317;28;20565;-76
2023/03/01 00:51:59;;;;;;;7.63;5.22;;;;;;;;;;5090139;28;20020;-76
2023/03/01 00:54:25;;;;;;;18.00;4.55;;;;;;;;;;5091234;28;20451;-76
2023/03/01 00:56:51;;;;;;;7.28;4.85;;;;;;;;;;5091659;28;20023;-76
2023/03/01 00:59:17;;;;;;;6.75;4.85;;;;;;;;;;5089462;28;20177;-75
2023/03/01 01:01:43;;;;;;;5.10;4.30;;;;;;;;;;5091462;28;20102;-76
2023/03/01 01:04:12;;;;;;;5.63;4.35;;;1.30;74.90;;;;;;5091382;28;20028;-76
2023/03/01 01:06:43;;;;;;;10.80;4.85;;;1.20;92.10;;;;;;5091768;28;20027;-75
2023/03/01 01:09:16;;;;;;;8.05;4.47;;;0.90;73.10;;;;;;5091503;28;20033;-74
2023/03/01 01:11:46;;;;;;;4.90;3.90;;;1.20;72.50;;;;;;5091806;28;20579;-76
2023/03/01 01:14:12;;;;;;;8.82;5.95;;;1.10;92.50;;;;;;5091547;28;20030;-76
2023/03/01 01:16:37;;;;;;;7.03;3.75;;;0.90;94.60;;;;;;5081345;28;20044;-75
2023/03/01 01:19:03;;;;;;;8.27;4.22;;;0.80;83.80;;;;;;5089334;28;20046;-75
2023/03/01 01:21:30;;;;;;;7.78;4.28;;;;;;;;;;5091535;28;20020;-75
2023/03/01 01:23:57;;;;;;;5.13;3.65;;;0.50;94.10;;;;;;5090838;28;20103;-75
2023/03/01 01:26:29;;;;;;;5.53;3.72;;;0.30;78.40;;;;;;5091247;28;20481;-75
2023/03/01 01:28:55;;;;;;;8.38;3.20;;;0.10;80.20;;;;;;5091008;28;20030;-75
2023/03/01 01:31:23;;;;;;;10.95;6.15;;;0.00;81.10;;;;;;5091114;28;20111;-76
2023/03/01 01:33:49;;;;;;;7.05;4.47;;;-0.10;91.00;;;;;;5090396;28;20021;-75
2023/03/01 01:36:16;;;;;;;7.32;5.13;;;-0.10;96.00;;;;;;5090979;28;20071;-75
2023/03/01 01:38:42;;;;;;;7.93;4.47;;;-1.00;80.20;;;;;;5090584;28;20020;-75
2023/03/01 01:41:08;;;;;;;5.90;4.50;;;;;;;;;;5089872;28;20118;-75
2023/03/01 01:43:38;;;;;;;8.00;6.40;;;-0.30;86.70;;;;;;5090611;28;20127;-75
2023/03/01 01:46:20;;;;;;;7.88;4.35;;;-0.50;97.30;;;;;;5090718;28;20031;-75
2023/03/01 01:48:52;;;;;;;9.45;4.13;;;-0.40;98.20;;;;;;5090412;28;20406;-75
2023/03/01 01:51:24;;;;;;;8.93;5.25;;;-0.50;89.00;;;;;;5089646;28;20438;-75
2023/03/01 01:53:56;;;;;;;10.05;4.90;;;-0.60;99.20;;;;;;5078573;28;20107;-75
2023/03/01 01:56:25;;;;;;;8.43;6.50;;;-0.60;94.90;;;;;;5090328;28;20671;-75
2023/03/01 01:58:52;;;;;;;5.53;4.97;;;-0.60;90.00;;;;;;5090436;28;20035;-75
2023/03/01 02:01:18;;;;;;;3.13;2.88;;;;;;;;;;5082288;28;20031;-75
2023/03/01 02:03:46;;;;;;;15.23;7.55;;;-0.60;99.90;;;;;;5090017;28;20054;-75
2023/03/01 02:06:45;;;;;;;5.03;3.58;;;-0.70;92.80;;;;;;5089780;28;20398;-75
2023/03/01 02:09:15;;;;;;;6.70;3.85;;;-0.80;91.80;;;;;;5088682;28;20019;-75
2023/03/01 02:11:43;;;;;;;6.18;5.50;;;-0.90;95.30;;;;;;5090445;28;20024;-75
2023/03/01 02:14:09;;;;;;;6.78;3.72;;;;;;;;;;5090137;28;20481;-77
2023/03/01 02:16:35;;;;;;;7.10;6.28;;;;;;;;;;5090517;28;20035;-75
2023/03/01 02:19:04;;;;;;;8.10;3.63;;;-0.90;97.60;;;;;;5089106;28;20012;-76
2023/03/01 02:21:45;;;;;;;7.53;5.13;;;-1.00;99.90;;;;;;5090071;28;20027;-76
2023/03/01 02:24:43;;;;;;;7.20;3.65;;;-1.00;90.30;;;;;;5089998;28;20024;-76
2023/03/01 02:27:10;;;;;;;5.47;4.45;;;-1.20;92.80;;;;;;5089762;28;20111;-76
2023/03/01 02:29:36;;;;;;;7.18;4.97;;;;;;;;;;5090131;28;20021;-75
2023/03/01 02:32:03;;;;;;;7.93;4.95;;;-1.10;89.60;;;;;;5087867;28;20055;-76
2023/03/01 02:34:32;;;;;;;13.35;5.43;;;-1.10;90.60;;;;;;5088754;28;20409;-76
2023/03/01 02:37:12;;;;;;;7.13;5.13;;;-1.10;99.90;;;;;;5077068;28;20032;-76
2023/03/01 02:39:46;;;;;;;4.88;4.28;;;-1.10;92.90;;;;;;5089604;28;20036;-75
2023/03/01 02:42:15;;;;;;;7.93;2.40;;;-1.20;99.90;;;;;;5089501;28;20068;-76
2023/03/01 02:44:41;;;;;;;6.78;4.80;;;-1.30;99.90;;;;;;5089219;28;20020;-75
2023/03/01 02:47:07;;;;;;;12.93;6.00;;;;;;;;;;5089419;28;20054;-76
2023/03/01 02:49:35;;;;;;;6.82;4.25;;;-1.10;91.40;;;;;;5089534;28;20390;-76
2023/03/01 02:52:38;;;;;;;5.90;4.45;;;-1.30;93.60;;;;;;5089200;28;20028;-76
2023/03/01 02:55:17;;;;;;;11.50;6.25;;;-1.40;93.00;;;;;;5079406;28;20044;-75
2023/03/01 02:57:45;;;;;;;4.20;3.83;;;-1.20;93.50;;;;;;5089644;28;20046;-75
2023/03/01 03:00:19;;;;;;;12.68;5.65;;;-1.50;93.80;;;;;;5089478;28;20024;-75
2023/03/01 03:02:50;;;;;;;5.95;5.35;;;-1.40;99.90;;;;;;5089126;28;20023;-75
2023/03/01 03:05:19;;;;;;;16.10;5.30;;;-1.50;92.10;;;;;;5088686;28;20080;-75
2023/03/01 03:07:46;;;;;;;12.90;6.50;;;-1.40;93.50;;;;;;5087975;28;20166;-75
2023/03/01 03:10:24;;;;;;;14.13;5.07;;;-1.50;92.00;;;;;;5087706;28;20077;-75
2023/03/01 03:12:52;;;;;;;5.63;4.20;;;-1.60;99.90;;;;;;5088296;28;20024;-76
2023/03/01 03:15:20;;;;;;;11.35;6.55;;;-1.60;97.10;;;;;;5088931;28;20672;-75
2023/03/01 03:17:46;;;;;;;12.40;5.60;;;-1.90;99.90;;;;;;5089026;28;20032;-75
2023/03/01 03:20:18;;;;;;;11.10;6.30;;;-1.50;99.90;;;;;;5088365;28;20089;-76
2023/03/01 03:22:45;;;;;;;10.13;6.93;;;;;;;;;;5088732;28;20497;-75
2023/03/01 03:25:11;;;;;;;7.70;4.57;;;;;;;;;;5088946;28;20031;-76
2023/03/01 03:27:39;;;;;;;11.73;4.57;;;-1.70;99.90;;;;;;5088718;28;20024;-74
2023/03/01 03:30:08;;;;;;;13.20;6.80;;;-1.80;95.00;;;;;;5087089;28;20272;-75
2023/03/01 03:32:36;;;;;;;4.93;4.45;;;-1.80;94.90;;;;;;5088793;28;20023;-76
2023/03/01 03:35:09;;;;;;;6.97;5.10;;;-1.90;99.90;;;;;;5086684;28;20123;-75
2023/03/01 03:40:23;;;;;;;8.75;6.35;;;-2.00;98.70;;;;;;5088348;28;20095;-75
2023/03/01 03:42:49;;;;;;;8.00;5.05;;;-1.90;99.90;;;;;;5088233;28;20040;-76
2023/03/01 03:45:15;;;;;;;12.93;6.28;;;-1.90;94.30;;;;;;5089003;28;20128;-76
2023/03/01 03:47:42;;;;;;;7.80;6.22;;;;;;;;;;5088358;28;20024;-75
2023/03/01 03:50:12;;;;;;;8.43;5.05;;;-2.00;97.60;;;;;;5088525;28;20405;-75
2023/03/01 03:52:38;;;;;;;5.38;4.55;;;-3.60;95.00;;;;;;5087201;28;20055;-75
2023/03/01 03:55:10;;;;;;;8.90;4.78;;;-1.40;96.40;;;;;;5088567;28;20469;-75
2023/03/01 03:57:40;;;;;;;5.50;3.65;;;-2.00;93.80;;;;;;5088013;28;20039;-75
2023/03/01 04:00:12;;;;;;;11.77;5.18;;;-2.10;94.40;;;;;;5088521;28;20039;-76
2023/03/01 04:02:45;;;;;;;7.63;4.55;;;-2.10;94.50;;;;;;5088102;28;20043;-75
2023/03/01 04:05:14;;;;;;;9.48;4.32;;;-2.20;95.00;;;;;;5088083;28;20032;-75
2023/03/01 04:07:40;;;;;;;10.30;6.57;;;;;;;;;;5088522;28;20027;-75
2023/03/01 04:10:10;;;;;;;8.25;6.25;;;-2.30;99.90;;;;;;5087372;28;20397;-74
2023/03/01 04:12:36;;;;;;;10.40;4.97;;;;;;;;;;5078566;28;20024;-76
2023/03/01 04:15:13;;;;;;;7.22;4.63;;;-2.30;96.60;;;;;;5079709;28;20047;-75
2023/03/01 04:17:46;;;;;;;6.65;3.90;;;-2.30;96.50;;;;;;5087711;28;20035;-75
2023/03/01 04:20:17;;;;;;;11.98;6.90;;;-2.60;99.90;;;;;;5088545;28;20028;-75
2023/03/01 04:22:46;;;;;;;7.00;4.50;;;-2.40;98.00;;;;;;5079319;28;20051;-75
2023/03/01 04:25:13;;;;;;;5.65;4.68;;;-2.40;98.00;;;;;;5092757;28;20482;-75
2023/03/01 04:27:40;;;;;;;3.67;2.85;;;;;;;;;;5092246;28;20028;-76
2023/03/01 04:30:07;;;;;;;11.05;5.60;;;-2.40;96.40;;;;;;5092355;28;20036;-76
2023/03/01 04:32:33;;;;;;;6.70;5.57;;;;;;;;;;5092148;28;20024;-75
2023/03/01 04:34:59;;;;;;;13.27;6.15;;;;;;;;;;5085460;28;20154;-75
2023/03/01 04:37:25;;;;;;;4.88;4.28;;;;;;;;;;5086974;28;20027;-75
2023/03/01 04:39:51;;;;;;;11.02;5.78;;;-2.40;99.90;;;;;;5092034;28;20134;-75
2023/03/01 04:42:17;;;;;;;8.98;4.53;;;-2.40;99.90;;;;;;5091967;28;20082;-76
2023/03/01 04:44:44;;;;;;;9.38;7.30;;;-3.60;95.20;;;;;;5091955;28;20032;-75
2023/03/01 04:47:10;;;;;;;15.67;7.43;;;-2.30;99.90;;;;;;5091820;28;20024;-75
2023/03/01 04:49:36;;;;;;;12.57;8.18;;;-2.30;99.90;;;;;;5091529;28;20031;-75
2023/03/01 04:52:04;;;;;;;8.25;4.30;;;-2.40;99.90;;;;;;5091884;28;20032;-75
2023/03/01 04:54:32;;;;;;;9.75;4.32;;;-2.40;99.90;;;;;;5090840;28;20502;-75
2023/03/01 04:56:58;;;;;;;11.50;5.97;;;-2.50;98.20;;;;;;5091848;28;20116;-76
2023/03/01 04:59:24;;;;;;;7.80;5.95;;;;;;;;;;5091371;28;20042;-76
2023/03/01 05:01:51;;;;;;;7.60;5.32;;;-2.40;99.90;;;;;;5091432;28;20482;-75
2023/03/01 05:04:17;;;;;;;9.35;6.47;;;;;;;;;;5090997;28;20570;-75
2023/03/01 05:06:44;;;;;;;6.32;5.20;;;;;;;;;;5091683;28;20059;-75
2023/03/01 05:09:11;;;;;;;7.47;4.35;;;-2.70;96.90;;;;;;5090276;28;20020;-75
2023/03/01 05:11:37;;;;;;;15.02;7.45;;;-1.80;97.70;;;;;;5091553;28;20039;-75
2023/03/01 05:14:03;;;;;;;10.30;6.43;;;-2.20;95.60;;;;;;5086147;28;20060;-76
2023/03/01 05:16:30;;;;;;;5.10;4.63;;;;;;;;;;5083192;28;20024;-74
2023/03/01 05:18:56;;;;;;;6.60;4.38;;;;;;;;;;5091478;28;20026;-75
2023/03/01 05:21:23;;;;;;;6.55;3.80;;;;;;;;;;5091580;28;20031;-75
2023/03/01 05:23:49;;;;;;;10.57;6.82;;;;;;;;;;5089537;28;20543;-75
2023/03/01 05:26:17;;;;;;;19.73;7.88;;;-2.40;94.60;;;;;;5091198;28;20486;-75
2023/03/01 05:28:43;;;;;;;9.80;6.28;;;-1.90;93.90;;;;;;5091284;28;20031;-75
2023/03/01 05:31:10;;;;;;;5.13;3.75;;;-1.70;96.40;;;;;;5089356;28;20023;-75
2023/03/01 05:33:40;;;;;;;8.10;5.80;;;2.90;95.40;;;;;;5090974;28;20032;-75
2023/03/01 05:36:09;;;;;;;10.25;6.22;;;-1.70;93.10;;;;;;5090290;28;20039;-75
2023/03/01 05:38:35;;;;;;;11.95;6.13;;;-1.60;99.20;;;;;;5078910;28;20502;-75
2023/03/01 05:41:01;;;;;;;10.65;5.60;;;-1.60;99.90;;;;;;5091109;28;20024;-75
2023/03/01 05:43:33;;;;;;;8.43;4.57;;;-1.50;99.20;;;;;;5090865;28;20120;-75
2023/03/01 05:45:59;;;;;;;11.45;5.70;;;-1.60;99.90;;;;;;5090463;28;20051;-75
2023/03/01 05:48:25;;;;;;;11.20;6.18;;;;;;;;;;5090463;28;20490;-76
2023/03/01 05:50:52;;;;;;;9.10;6.22;;;;;;;;;;5090573;28;20039;-75
2023/03/01 05:53:20;;;;;;;11.75;6.65;;;-1.50;99.90;;;;;;5090882;28;20020;-75
2023/03/01 05:55:47;;;;;;;17.80;6.05;;;-1.40;92.70;;;;;;5090736;28;20043;-76
2023/03/01 05:58:18;;;;;;;5.18;4.68;;;-1.40;92.50;;;;;;5090778;28;20094;-75
2023/03/01 06:00:45;;;;;;;13.95;6.22;;;-1.30;92.30;;;;;;5089839;28;20035;-75
2023/03/01 06:03:13;;;;;;;8.40;5.45;;;-1.10;97.40;;;;;;5090495;28;20419;-75
2023/03/01 06:05:39;;;;;;;14.88;6.93;;;-1.10;92.10;;;;;;5090003;28;20032;-75
2023/03/01 06:08:05;;;;;;;10.60;7.80;;;;;;;;;;5088812;28;20498;-76
2023/03/01 06:10:31;;;;;;;9.18;7.30;;;;;;;;;;5083986;28;20024;-75
2023/03/01 06:12:57;;;;;;;10.35;5.85;;;-0.90;99.90;;;;;;5090078;28;20119;-76
2023/03/01 06:15:24;;;;;;;16.38;7.82;;;-0.60;99.90;;;;;;5089176;28;20046;-75
2023/03/01 06:17:51;;;;;;;16.42;6.60;;;-0.80;90.40;;;;;;5089864;28;20394;-75
2023/03/01 06:20:20;;;;;;;16.70;6.85;;;-1.10;96.20;;;;;;5089557;28;20024;-75
2023/03/01 06:22:46;;;;;;;6.88;5.18;;;-0.80;99.90;;;;;;5086161;28;20455;-75
2023/03/01 06:25:14;;;;;;;9.67;7.40;;;-0.80;90.80;;;;;;5088342;28;20469;-75
2023/03/01 06:27:40;;;;;;;20.10;8.20;;;;;;;;;;5087958;28;20103;-75
2023/03/01 06:30:07;;;;;;;10.95;7.63;;;-0.70;90.40;;;;;;5086813;28;20046;-75
2023/03/01 06:32:33;;;;;;;12.05;6.47;;;-0.60;97.10;;;;;;5084600;28;20371;-76
2023/03/01 06:34:59;;;;;;;11.25;5.75;;;;;;;;;;5084696;28;20047;-75
2023/03/01 06:37:25;;;;;;;9.00;6.10;;;-0.60;89.80;;;;;;5084391;28;20023;-76
2023/03/01 06:39:51;;;;;;;13.43;6.13;;;;;;;;;;5087148;28;20028;-75
2023/03/01 06:42:17;;;;;;;14.57;6.43;;;;;;;;;;5086864;28;20032;-75
2023/03/01 06:44:44;;;;;;;16.95;8.13;;;-0.30;92.80;;;;;;5086630;28;20028;-72
2023/03/01 06:47:10;;;;;;;15.45;8.13;;;;;;;;;;5083426;28;20530;-72
2023/03/01 06:49:36;;;;;;;8.70;6.13;;;;;;;;;;5085391;28;20068;-77
2023/03/01 06:52:02;;;;;;;7.65;5.95;;;;;;;;;;5087199;28;20028;-76
2023/03/01 06:54:28;;;;;;;7.85;5.90;;;;;;;;;;5084153;28;20035;-76
2023/03/01 06:56:54;;;;;;;9.10;6.47;;;;;;;;;;5081928;28;20031;-76
2023/03/01 06:59:20;;;;;;;14.68;5.55;;;;;;;;;;5088161;28;20107;-76
2023/03/01 07:01:46;;;;;;;11.80;7.45;;;;;;;;;;5088310;28;20028;-76
2023/03/01 07:04:12;;;;;;;11.82;7.03;;;0.10;88.00;;;;;;5088175;28;20036;-76
2023/03/01 07:06:38;;;;;;;15.45;8.20;;;;;;;;;;5082172;28;20024;-77
2023/03/01 07:09:04;;;;;;;13.80;7.47;;;;;;;;;;5076769;28;20020;-76
2023/03/01 07:11:30;;;;;;;16.73;7.05;;;;;;;;;;5087681;28;20035;-78
2023/03/01 07:13:59;;;;;;;12.95;8.80;;;;;;;;;;5072578;28;20036;-72
2023/03/01 07:16:25;;;;;;;15.07;6.85;;;0.40;87.30;;;;;;5081332;28;20032;-75
2023/03/01 07:18:51;;;;;;;11.15;7.13;;;;;;;;;;5085289;28;20012;-74
2023/03/01 07:21:17;;;;;;;11.68;7.43;;;;;;;;;;5084125;28;20645;-75
2023/03/01 07:23:43;;;;;;;13.70;6.78;;;;;;;;;;5080441;28;20028;-75
2023/03/01 07:26:09;;;;;;;15.70;7.10;;;1.00;96.80;;;;;;5071892;28;20027;-71
2023/03/01 07:28:38;;;;;;;17.35;7.68;;;1.00;96.70;;;;;;5082385;28;20032;-71
2023/03/01 07:31:05;;;;;;;13.85;8.15;;;0.80;83.30;;;;;;5086287;28;20024;-76
2023/03/01 07:33:35;;;;;;;12.32;8.55;;;0.60;97.00;;;;;;5082465;28;20031;-77
2023/03/01 07:36:03;;;;;;;13.50;9.05;;;0.80;92.90;;;;;;5079242;28;20093;-72
2023/03/01 07:38:29;;;;;;;14.60;8.43;;;0.90;82.90;;;;;;5084486;28;20432;-71
2023/03/01 07:40:59;;;;;;;14.98;7.70;;;1.10;85.80;;;;;;5086181;28;20027;-72
2023/03/01 07:43:25;;;;;;;21.88;8.65;;;;;;;;;;5073831;28;20044;-72
2023/03/01 07:45:51;;;;;;;19.33;8.77;;;;;;;;;;5079660;28;20036;-73
2023/03/01 07:48:17;;;;;;;15.23;7.45;;;;;;;;;;5084224;28;20097;-76
2023/03/01 07:50:43;;;;;;;12.90;6.72;;;;;;;;;;5086132;28;20490;-76
2023/03/01 07:53:10;;;;;;;15.57;6.75;;;1.20;92.00;;;;;;5085969;28;20035;-76
2023/03/01 07:55:36;;;;;;;14.30;7.80;;;1.30;79.70;;;;;;5077901;28;20039;-71
2023/03/01 07:58:02;;;;;;;15.33;9.27;;;;;;;;;;5083603;28;20024;-71
2023/03/01 08:00:28;;;;;;;19.45;8.00;;;;;;;;;;5085606;28;20032;-70
2023/03/01 08:02:54;;;;;;;26.50;9.40;;;;;;;;;;5083384;28;20020;-75
2023/03/01 08:05:22;;;;;;;20.52;9.73;;;;;;;;;;5081937;28;20043;-74
2023/03/01 08:07:48;;;;;;;12.05;7.47;;;;;;;;;;5078466;28;20110;-73
2023/03/01 08:10:14;;;;;;;24.27;11.77;;;;;;;;;;5084540;28;20047;-74
2023/03/01 08:12:40;;;;;;;20.50;9.55;;;;;;;;;;5081331;28;20020;-75
2023/03/01 08:15:06;;;;;;;12.10;8.20;;;;;;;;;;5078790;28;20483;-75
2023/03/01 08:17:31;;;;;;;18.05;9.75;;;2.60;78.40;;;;;;5081665;28;20162;-74
2023/03/01 08:19:57;;;;;;;16.95;8.77;;;;;;;;;;5079563;28;20032;-75
2023/03/01 08:22:23;;;;;;;17.48;9.02;;;;;;;;;;5085591;28;20031;-75
2023/03/01 08:24:49;;;;;;;17.98;8.57;;;;;;;;;;5080656;28;20028;-75
2023/03/01 08:27:16;;;;;;;19.58;8.93;;;2.60;91.40;;;;;;5079553;28;20016;-75
2023/03/01 08:29:42;;;;;;;19.23;9.10;;;2.90;86.60;;;;;;5076119;28;20086;-75
2023/03/01 08:32:08;;;;;;;26.73;10.80;;;;;;;;;;5084171;28;20142;-75
2023/03/01 08:34:35;;;;;;;21.80;9.85;;;;;;;;;;5084113;28;20047;-75
2023/03/01 08:37:01;;;;;;;20.90;8.10;;;2.80;72.40;;;;;;5077161;28;20032;-75
2023/03/01 08:39:27;;;;;;;16.33;8.10;;;2.50;78.00;;;;;;5075703;28;20379;-74
2023/03/01 08:41:53;;;;;;;12.90;7.88;;;;;;;;;;5084298;28;20034;-78
2023/03/01 08:44:20;;;;;;;19.60;9.38;;;;;;;;;;5083468;28;20113;-74
2023/03/01 08:46:47;;;;;;;18.02;8.18;;;;;;;;;;5077441;28;20615;-73
2023/03/01 08:49:19;;;;;;;17.75;8.27;;;2.70;77.30;;;;;;5085578;28;20040;-77
2023/03/01 08:51:46;;;;;;;17.92;8.65;;;2.50;74.70;;;;;;5083736;28;20512;-76
2023/03/01 08:54:17;;;;;;;19.08;9.38;;;2.60;80.40;;;;;;5080437;28;20028;-77
2023/03/01 08:56:43;;;;;;;16.83;8.52;;;;;;;;;;5078205;28;20119;-77
2023/03/01 08:59:11;;;;;;;10.00;7.45;;;2.60;90.10;;;;;;5083076;28;20028;-76
2023/03/01 09:01:37;;;;;;;21.42;8.32;;;;;;;;;;5083384;28;20024;-77
2023/03/01 09:04:03;;;;;;;14.98;8.70;;;;;;;;;;5082298;28;20067;-77
2023/03/01 09:06:35;;;;;;;16.67;8.48;;;3.00;79.10;;;;;;5079947;28;20438;-77
2023/03/01 09:09:02;;;;;;;18.75;8.35;;;3.30;77.90;;;;;;5083690;28;20039;-76
2023/03/01 09:11:28;;;;;;;16.77;8.23;;;3.50;72.80;;;;;;5086307;28;20039;-76
2023/03/01 09:13:54;;;;;;;20.17;9.15;;;3.60;70.90;;;;;;5081583;28;20080;-77
2023/03/01 09:16:22;;;;;;;17.92;10.15;;;3.70;70.60;;;;;;5081214;28;20043;-77
2023/03/01 09:18:52;;;;;;;;;;;3.80;70.50;;;;;;5088532;28;20111;-77
2023/03/01 09:21:20;;;;;;;16.63;8.18;;;4.00;90.70;;;;;;5089203;28;19929;-74
2023/03/01 09:23:47;;;;;;;18.95;9.95;;;3.60;70.90;;;;;;5086466;28;20024;-72
2023/03/01 09:26:19;;;;;;;16.15;7.75;;;3.60;69.90;;;;;;5069911;28;20028;-71
2023/03/01 09:28:45;;;;;;;22.35;10.15;;;3.70;70.00;;;;;;5086597;28;20036;-76
2023/03/01 09:31:14;;;;;;;19.52;9.27;;;3.60;69.80;;;;;;5089116;28;20036;-77
2023/03/01 09:33:41;;;;;;;13.52;7.47;;;3.70;69.50;;;;;;5087433;28;20477;-76
2023/03/01 09:36:13;;;;;;;25.30;10.30;;;3.50;79.30;;;;;;5081823;28;20043;-77
2023/03/01 09:38:39;;;;;;;21.67;9.45;;;3.70;90.00;;;;;;5087494;28;20177;-77
2023/03/01 09:41:31;;;;;;;18.27;9.38;;;3.70;69.20;;;;;;5087248;28;20028;-77
2023/03/01 09:44:04;;;;;;;15.52;7.95;;;3.60;77.40;;;;;;5067303;28;20075;-77
2023/03/01 09:46:37;;;;;;;26.23;9.45;;;3.40;77.90;;;;;;5081529;28;20103;-77
2023/03/01 09:49:04;;;;;;;14.57;8.15;;;;;;;;;;5081143;28;20085;-78
2023/03/01 09:51:51;;;;;;;37.15;9.43;;;;;;;;;;5086751;28;20092;-79
2023/03/01 09:54:17;;;;;;;18.33;8.83;;;;;;;;;;5073579;28;20146;-76
2023/03/01 09:57:06;;;;;;;19.83;9.85;;;3.70;69.80;;;;;;5076720;28;20150;-77
2023/03/01 10:00:06;;;;;;;21.92;8.60;;;3.70;69.00;;;;;;5077180;28;20028;-76
2023/03/01 10:02:38;;;;;;;15.07;7.43;;;3.80;68.80;;;;;;5086983;28;20047;-76
2023/03/01 10:05:15;;;;;;;18.98;9.30;;;4.00;68.80;;;;;;5079570;28;20041;-77
2023/03/01 10:08:05;;;;;;;27.42;9.13;;;4.50;70.80;;;;;;5084730;28;20067;-77
2023/03/01 10:10:40;;;;;;;22.05;9.75;;;4.30;66.50;;;;;;5078528;28;20372;-77
2023/03/01 10:13:16;;;;;;;22.08;8.57;;;4.50;86.50;;;;;;5079233;28;20490;-76
2023/03/01 10:16:15;;;;;;;18.63;10.10;;;;;;;;;;5081229;28;20435;-79
2023/03/01 10:18:42;;;;;;;11.88;6.57;;;;;;;;;;5085781;28;20035;-75
2023/03/01 10:21:21;;;;;;;18.77;9.40;;;;;;;;;;5082896;28;20030;-77
2023/03/01 10:23:51;;;;;;;27.70;9.18;;;5.20;65.50;;;;;;5085506;28;20055;-76
2023/03/01 10:26:48;;;;;;;17.23;9.65;;;4.70;65.30;;;;;;5074497;28;20040;-77
2023/03/01 10:29:14;;;;;;;16.10;8.50;;;4.90;85.40;;;;;;5087196;28;20114;-76
2023/03/01 10:31:51;;;;;;;17.55;8.77;;;5.10;65.10;;;;;;5081837;28;20547;-77
2023/03/01 10:34:27;;;;;;;10.55;7.05;;;5.40;79.20;;;;;;5097461;28;20511;-77
2023/03/01 10:37:18;;;;;;;20.98;9.25;;;5.40;63.00;;;;;;5077941;28;20039;-76
2023/03/01 10:39:55;;;;;;;14.55;8.23;;;5.40;73.80;;;;;;5087185;28;20020;-76
2023/03/01 10:42:32;;;;;;;21.00;7.90;;;5.70;68.50;;;;;;5084940;28;20513;-76
2023/03/01 10:45:23;;;;;;;15.40;8.55;;;5.40;62.70;;;;;;5081016;28;20389;-77
2023/03/01 10:48:05;;;;;;;13.63;8.02;;;5.60;83.30;;;;;;5084491;28;20099;-74
2023/03/01 10:50:32;;;;;;;17.33;8.32;;;5.20;61.40;;;;;;5074681;28;20028;-73
2023/03/01 10:53:00;;;;;;;18.42;9.60;;;5.10;62.70;;;;;;5085196;28;20028;-73
2023/03/01 10:55:37;;;;;;;19.92;9.52;;;4.90;60.90;;;;;;5080858;28;21397;-72
2023/03/01 10:58:21;;;;;;;15.70;7.93;;;5.00;72.90;;;;;;5087393;28;20023;-73
2023/03/01 11:00:47;;;;;;;18.48;9.15;;;;;;;;;;5087124;28;20031;-72
2023/03/01 11:03:16;;;;;;;17.80;8.95;;;4.70;71.60;;;;;;5086309;28;20028;-73
2023/03/01 11:05:57;;;;;;;15.00;7.50;;;4.70;77.80;;;;;;5075537;28;20601;-72
2023/03/01 11:08:36;;;;;;;19.58;9.40;;;4.70;62.40;;;;;;5086892;28;20028;-72
2023/03/01 11:11:09;;;;;;;15.65;8.02;;;4.70;62.50;;;;;;5079292;28;20107;-71
2023/03/01 11:13:35;;;;;;;23.85;9.43;;;4.50;76.30;;;;;;5079718;28;20024;-72
2023/03/01 11:16:09;;;;;;;19.58;9.02;;;4.70;63.00;;;;;;5079134;28;20071;-76
2023/03/01 11:18:35;;;;;;;22.63;10.60;;;4.50;82.70;;;;;;5082337;28;20508;-81
2023/03/01 11:21:02;;;;;;;17.30;8.20;;;4.80;62.20;;;;;;5086884;28;20107;-76
2023/03/01 11:23:30;;;;;;;24.80;8.77;;;5.70;61.80;;;;;;5085971;28;20028;-76
2023/03/01 11:26:02;;;;;;;23.98;10.27;;;4.60;61.50;;;;;;5078768;28;20069;-76
2023/03/01 11:28:30;;;;;;;20.55;8.93;;;4.60;73.00;;;;;;5084666;28;20729;-76
2023/03/01 11:31:14;;;;;;;22.80;10.35;;;4.80;61.90;;;;;;5080288;28;20032;-76
2023/03/01 11:33:49;;;;;;;18.25;7.90;;;4.70;62.20;;;;;;5069895;28;20029;-77
2023/03/01 11:36:37;;;;;;;17.52;9.13;;;5.00;79.80;;;;;;5072314;28;20033;-76
2023/03/01 11:39:17;;;;;;;22.70;10.07;;;4.80;61.30;;;;;;5080839;28;20386;-76
2023/03/01 11:41:46;;;;;;;20.20;8.68;;;5.00;72.00;;;;;;5073631;28;20032;-76
2023/03/01 11:44:29;;;;;;;20.10;9.15;;;4.90;61.30;;;;;;5072749;28;20039;-76
2023/03/01 11:47:32;;;;;;;17.42;9.15;;;5.20;79.30;;;;;;5077874;28;20035;-76
2023/03/01 11:50:04;;;;;;;15.73;8.95;;;5.20;61.00;;;;;;5084549;28;20028;-75
2023/03/01 11:52:57;;;;;;;23.40;8.57;;;5.20;60.80;;;;;;5084824;28;20020;-76
2023/03/01 11:55:23;;;;;;;16.63;8.65;;;;;;;;;;5081940;28;20036;-77
2023/03/01 11:58:19;;;;;;;21.98;9.50;;;5.30;60.00;;;;;;5082769;28;20121;-76
2023/03/01 12:01:04;;;;;;;13.02;7.78;;;5.30;60.10;;;;;;5082918;28;20028;-76
2023/03/01 12:04:15;;;;;;;15.80;7.78;;;5.50;59.50;;;;;;5083678;28;20548;-73
2023/03/01 12:07:19;;;;;;;21.85;10.38;;;5.70;80.40;;;;;;5078344;28;20020;-73
2023/03/01 12:09:45;;;;;;;16.35;7.72;;;;;;;;;;5019447;28;20053;-72
2023/03/01 12:12:45;;;;;;;22.35;9.55;;;5.40;80.40;;;;;;5022267;28;20121;-73
2023/03/01 12:15:34;;;;;;;19.08;8.45;;;5.60;59.70;;;;;;5020155;28;20132;-74
2023/03/01 12:18:00;;;;;;;17.80;8.57;;;;;;;;;;5023258;28;20036;-74
2023/03/01 12:20:36;;;;;;;17.02;8.85;;;5.70;66.90;;;;;;5023160;28;20087;-73
2023/03/01 12:23:14;;;;;;;18.57;9.17;;;5.40;60.10;;;;;;5021302;28;20025;-70
2023/03/01 12:25:46;;;;;;;;;;;5.40;59.80;;;;;;4998646;28;20272;-70
2023/03/01 12:28:30;;;;;;;21.10;8.63;;;5.40;59.70;;;;;;5023832;28;19909;-77
2023/03/01 12:31:37;;;;;;;21.73;9.52;;;5.20;80.30;;;;;;5011989;28;20458;-77
2023/03/01 12:34:24;;;;;;;15.23;9.05;;;5.50;60.00;;;;;;4961024;28;20482;-76
2023/03/01 12:37:29;;;;;;;21.38;10.05;;;5.60;60.00;;;;;;4958233;28;20054;-76
2023/03/01 12:40:00;;;;;;;26.75;10.05;;;5.30;80.50;;;;;;4960868;28;20038;-77
2023/03/01 12:42:50;;;;;;;37.50;13.65;;;5.50;60.40;;;;;;4962046;28;20050;-77
2023/03/01 12:45:34;;;;;;;25.58;11.50;;;5.30;60.40;;;;;;4963778;28;20046;-76
2023/03/01 12:48:33;;;;;;;25.38;9.95;;;5.20;60.50;;;;;;5030718;28;20092;-76
2023/03/01 12:51:05;;;;;;;18.90;9.18;;;5.10;62.30;;;;;;5028111;28;20043;-77
2023/03/01 12:53:51;;;;;;;26.45;10.05;;;5.20;63.60;;;;;;5031525;28;20056;-77
2023/03/01 12:56:26;;;;;;;23.60;10.10;;;5.00;61.50;;;;;;5028564;28;20049;-78
2023/03/01 12:59:20;;;;;;;15.10;8.82;;;5.30;71.00;;;;;;5040643;28;20628;-77
2023/03/01 13:02:03;;;;;;;20.70;9.75;;;5.20;61.10;;;;;;5020421;28;20079;-76
2023/03/01 13:04:53;;;;;;;20.83;9.00;;;5.20;66.50;;;;;;5035981;28;20037;-76
2023/03/01 13:07:49;;;;;;;18.92;9.00;;;5.90;80.10;;;;;;5029568;28;20048;-76
2023/03/01 13:10:35;;;;;;;24.80;11.77;;;6.10;59.40;;;;;;5074049;28;20066;-76
2023/03/01 13:13:03;;;;;;;26.33;11.30;;;6.40;66.00;;;;;;5082414;28;20490;-76
2023/03/01 13:15:34;;;;;;;19.25;10.02;;;6.60;58.00;;;;;;5081659;28;20092;-79
2023/03/01 13:18:25;;;;;;;17.08;9.38;;;6.80;77.70;;;;;;5084460;28;20020;-76
2023/03/01 13:20:53;;;;;;;25.55;10.73;;;7.10;57.60;;;;;;5087866;28;20566;-74
2023/03/01 13:23:21;;;;;;;22.00;11.93;;;7.30;56.40;;;;;;5083573;28;20081;-73
2023/03/01 13:26:14;;;;;;;25.20;11.85;;;8.20;56.70;;;;;;5081371;28;20027;-75
2023/03/01 13:28:52;;;;;;;17.70;9.00;;;7.50;56.00;;;;;;5084758;28;20024;-75
2023/03/01 13:31:18;;;;;;;18.52;8.23;;;;;;;;;;5088103;28;20020;-75
2023/03/01 13:33:47;;;;;;;21.58;9.80;;;7.70;54.50;;;;;;5083477;28;20028;-72
2023/03/01 13:36:28;;;;;;;22.42;9.55;;;7.80;55.90;;;;;;5082894;28;20043;-76
2023/03/01 13:38:55;;;;;;;20.48;9.50;;;;;;;;;;5080885;28;20078;-73